Time;durP1;ratioP1;P1;durP2;ratioP2;P2;SDS_P1;SDS_P2;PMS_P1;PMS_P2;Temp;Humidity;BMP_temperature;BMP_pressure;BME280_temperature;BME280_humidity;BME280_pressure;Samples;Min_cycle;Max_cycle;Signal;HPM_P1;HPM_P2
2021/01/08 00:08:24;;;;;;;26.43;16.10;;;;;;;-0.77;87.31;99061.53;493186;1143;65118;-62
2021/01/08 00:18:28;;;;;;;19.93;13.10;;;;;;;-0.87;86.44;99056.61;493645;1144;65116;-62
2021/01/08 00:28:32;;;;;;;20.50;13.70;;;;;;;-0.86;86.68;99062.63;494135;1144;65198;-62
2021/01/08 00:38:36;;;;;;;18.97;11.93;;;;;;;-0.86;87.40;99054.89;493701;1143;65564;-62
2021/01/08 00:48:40;;;;;;;19.27;12.70;;;;;;;-0.79;87.22;99045.27;493504;1143;65108;-61
2021/01/08 00:58:44;;;;;;;19.23;12.73;;;;;;;-0.88;87.40;99061.83;493903;1144;65184;-61
2021/01/08 01:08:50;;;;;;;18.53;12.80;;;;;;;-0.93;86.63;99055.92;493941;1144;65155;-63
2021/01/08 01:18:56;;;;;;;18.47;13.23;;;;;;;-0.96;87.14;99051.72;494195;1143;65523;-61
2021/01/08 01:29:00;;;;;;;21.85;14.90;;;;;;;-0.99;86.41;99055.21;493240;1143;65137;-62
2021/01/08 01:39:04;;;;;;;21.55;14.00;;;;;;;-0.99;86.75;99051.77;493860;1143;65230;-62
2021/01/08 01:49:08;;;;;;;21.00;13.50;;;;;;;-1.06;87.11;99045.93;494262;1143;65120;-62
2021/01/08 01:59:12;;;;;;;20.77;13.63;;;;;;;-1.13;86.70;99052.97;493461;1143;65325;-61
2021/01/08 02:09:18;;;;;;;21.33;12.97;;;;;;;-1.13;86.48;99031.53;493569;1144;65607;-62
2021/01/08 02:19:28;;;;;;;22.10;14.00;;;;;;;-1.10;86.19;99041.75;493479;1143;65602;-62
2021/01/08 02:29:33;;;;;;;24.20;15.03;;;;;;;-1.11;86.98;99046.93;493473;1143;65873;-61
2021/01/08 02:39:38;;;;;;;21.73;12.90;;;;;;;-1.02;86.25;99052.72;493358;1143;65262;-60
2021/01/08 02:49:42;;;;;;;21.10;14.50;;;;;;;-0.96;87.07;99049.14;502815;1143;65133;-62
2021/01/08 02:59:47;;;;;;;20.57;12.70;;;;;;;-0.95;86.92;99044.81;494311;1143;65257;-62
2021/01/08 03:09:52;;;;;;;20.03;14.23;;;;;;;-0.90;87.10;99048.14;493821;1143;65205;-63
2021/01/08 03:19:55;;;;;;;17.70;12.97;;;;;;;-0.93;87.02;99051.63;493312;1143;65161;-60
2021/01/08 03:30:00;;;;;;;18.25;12.35;;;;;;;-0.97;86.46;99046.59;493448;1144;65181;-61
2021/01/08 03:40:06;;;;;;;19.75;13.90;;;;;;;-1.02;86.77;99044.98;493097;1144;65200;-61
2021/01/08 03:50:11;;;;;;;19.80;13.70;;;;;;;-1.06;86.49;99039.95;493697;1144;65186;-62
2021/01/08 04:00:16;;;;;;;18.83;12.90;;;;;;;-1.10;86.47;99030.58;493743;1144;65127;-62
2021/01/08 04:10:20;;;;;;;19.87;13.80;;;;;;;-1.08;86.73;99028.84;494066;1144;65163;-61
2021/01/08 04:20:24;;;;;;;24.00;16.70;;;;;;;-1.08;85.85;99036.56;493994;1144;65204;-62
2021/01/08 04:30:28;;;;;;;33.63;21.60;;;;;;;-1.13;87.05;99057.30;493538;1143;65203;-61
2021/01/08 04:40:33;;;;;;;48.57;26.53;;;;;;;-1.15;86.99;99048.77;493406;1143;65150;-62
2021/01/08 04:50:37;;;;;;;31.17;20.47;;;;;;;-1.21;86.31;99054.91;493380;1143;65144;-61
2021/01/08 05:00:41;;;;;;;38.73;20.20;;;;;;;-1.17;86.34;99055.66;493978;1143;65177;-62
2021/01/08 05:10:46;;;;;;;34.67;22.70;;;;;;;-1.17;85.81;99056.52;494274;1144;65117;-62
2021/01/08 05:20:52;;;;;;;33.95;20.85;;;;;;;-1.17;85.82;99068.55;493703;1143;65111;-62
2021/01/08 05:30:58;;;;;;;31.37;18.73;;;;;;;-1.21;86.33;99066.94;493261;1143;65545;-62
2021/01/08 05:41:05;;;;;;;22.13;14.70;;;;;;;-1.22;85.90;99071.23;493735;1143;65191;-61
2021/01/08 05:51:13;;;;;;;27.20;16.77;;;;;;;-1.26;86.28;99067.05;493742;1143;65916;-63
2021/01/08 06:01:18;;;;;;;21.03;14.63;;;;;;;-1.30;86.26;99063.69;493644;1143;65113;-62
2021/01/08 06:11:28;;;;;;;22.83;15.67;;;;;;;-1.28;86.18;99073.97;494080;1144;65120;-63
2021/01/08 06:21:39;;;;;;;22.00;16.13;;;;;;;-1.33;85.92;99075.78;494440;1144;65139;-62
2021/01/08 06:31:48;;;;;;;23.40;16.03;;;;;;;-1.36;85.84;99089.61;494031;1143;65143;-62
2021/01/08 06:41:53;;;;;;;26.40;18.90;;;;;;;-1.33;86.09;99089.53;493473;1144;65260;-62
2021/01/08 06:52:03;;;;;;;20.50;14.75;;;;;;;-1.28;86.36;99097.98;493282;1143;65204;-61
2021/01/08 07:02:14;;;;;;;28.77;16.30;;;;;;;-1.29;86.42;99096.29;494094;1143;66067;-62
2021/01/08 07:12:23;;;;;;;27.50;15.65;;;;;;;-1.19;86.62;99107.25;493980;1143;65135;-62
2021/01/08 07:22:33;;;;;;;33.53;19.90;;;;;;;-1.11;86.47;99113.92;493963;1144;65162;-62
2021/01/08 07:32:38;;;;;;;36.53;21.70;;;;;;;-0.99;85.71;99116.20;494107;1144;65145;-62
2021/01/08 07:42:56;;;;;;;36.47;21.77;;;;;;;-0.80;85.57;99129.52;493424;1143;65132;-62
2021/01/08 07:53:00;;;;;;;35.30;18.10;;;;;;;-0.43;85.07;99140.60;494342;1143;65155;-63
2021/01/08 08:03:06;;;;;;;28.20;18.40;;;;;;;1.60;85.64;99141.45;494132;1143;65191;-66
2021/01/08 08:13:12;;;;;;;27.90;20.43;;;;;;;5.16;82.71;99144.99;493905;1143;65141;-64
2021/01/08 08:23:17;;;;;;;22.85;15.55;;;;;;;7.85;78.89;99141.02;493582;1144;65124;-65
2021/01/08 08:33:22;;;;;;;25.47;18.60;;;;;;;10.42;75.54;99142.89;494042;1144;65130;-63
2021/01/08 08:43:28;;;;;;;30.53;19.57;;;;;;;11.60;72.44;99136.98;494033;1144;65139;-65
2021/01/08 08:53:32;;;;;;;30.80;22.33;;;;;;;12.09;70.37;99133.37;485093;1143;10001182;-66
2021/01/08 09:03:36;;;;;;;31.65;24.20;;;;;;;11.16;68.72;99136.73;493738;1144;65114;-65
2021/01/08 09:13:59;;;;;;;26.70;21.40;;;;;;;10.14;67.91;99136.08;494125;1143;65121;-63
2021/01/08 09:24:06;;;;;;;25.50;21.40;;;;;;;10.65;68.01;99128.11;493945;1143;65175;-62
2021/01/08 09:34:10;;;;;;;30.05;24.35;;;;;;;9.58;66.93;99126.75;493789;1143;65197;-62
2021/01/08 09:44:15;;;;;;;30.70;24.40;;;;;;;7.62;67.77;99115.42;493876;1143;65362;-64
2021/01/08 09:54:19;;;;;;;32.87;22.03;;;;;;;5.99;68.29;99118.27;493199;1143;65278;-60
2021/01/08 10:04:31;;;;;;;27.20;21.10;;;;;;;5.08;69.38;99117.67;493167;1143;65116;-64
2021/01/08 10:14:36;;;;;;;35.05;23.10;;;;;;;4.18;70.43;99110.53;493704;1143;65140;-62
2021/01/08 10:24:40;;;;;;;39.03;24.20;;;;;;;3.86;71.46;99111.98;493767;1143;65134;-62
2021/01/08 10:34:45;;;;;;;35.35;24.20;;;;;;;3.46;72.00;99105.03;494005;1143;65175;-67
2021/01/08 10:44:50;;;;;;;33.47;23.23;;;;;;;3.49;72.76;99101.44;493332;1143;65172;-66
2021/01/08 10:54:54;;;;;;;35.83;25.10;;;;;;;3.54;72.63;99103.84;493559;1143;65471;-62
2021/01/08 11:04:58;;;;;;;32.53;21.37;;;;;;;3.39;72.14;99095.80;493300;1144;65110;-63
2021/01/08 11:15:03;;;;;;;32.50;22.50;;;;;;;3.45;73.17;99087.73;492518;1144;65932;-65
2021/01/08 11:25:12;;;;;;;28.80;21.07;;;;;;;3.53;72.58;99087.44;493486;1144;65484;-59
2021/01/08 11:35:19;;;;;;;31.90;22.90;;;;;;;3.56;73.10;99092.48;492855;1144;65153;-63
2021/01/08 11:45:23;;;;;;;30.37;22.07;;;;;;;3.03;72.74;99093.84;494020;1144;65188;-61
2021/01/08 11:55:27;;;;;;;25.75;18.05;;;;;;;2.50;73.55;99096.76;493653;1144;65620;-63
2021/01/08 12:05:31;;;;;;;29.40;20.37;;;;;;;2.45;73.59;99101.26;493333;1143;66343;-60
2021/01/08 12:15:35;;;;;;;34.13;22.67;;;;;;;2.38;74.18;99103.25;493595;1144;65115;-60
2021/01/08 12:25:40;;;;;;;41.00;27.70;;;;;;;2.12;74.40;99093.03;493980;1143;65274;-61
2021/01/08 12:35:44;;;;;;;34.83;23.03;;;;;;;1.94;74.75;99103.16;493662;1143;65219;-59
2021/01/08 12:45:48;;;;;;;33.10;22.80;;;;;;;1.87;75.19;99102.53;494010;1143;65492;-65
2021/01/08 12:55:52;;;;;;;37.03;24.33;;;;;;;1.77;75.32;99099.44;493782;1144;65491;-62
2021/01/08 13:05:56;;;;;;;32.60;23.30;;;;;;;1.52;75.78;99102.04;493499;1143;65088;-66
2021/01/08 13:16:02;;;;;;;41.45;27.10;;;;;;;1.49;76.14;99112.50;493753;1143;65110;-64
2021/01/08 13:26:07;;;;;;;33.03;24.17;;;;;;;1.44;76.34;99109.21;494065;1144;65325;-65
2021/01/08 13:36:12;;;;;;;38.53;25.00;;;;;;;1.34;76.17;99116.45;485538;1143;10001825;-64
2021/01/08 13:46:16;;;;;;;39.37;26.00;;;;;;;1.26;77.34;99124.47;493738;1143;65111;-64
2021/01/08 13:56:25;;;;;;;42.03;26.53;;;;;;;1.20;77.16;99124.66;493536;1143;65370;-62
2021/01/08 14:06:30;;;;;;;40.47;26.57;;;;;;;0.92;77.44;99131.56;493452;1144;65696;-61
2021/01/08 14:16:38;;;;;;;42.23;27.87;;;;;;;0.66;77.59;99133.23;493649;1142;65212;-60
2021/01/08 14:26:42;;;;;;;43.70;27.77;;;;;;;0.34;77.90;99134.22;493051;1144;65751;-64
2021/01/08 14:36:46;;;;;;;52.60;33.15;;;;;;;-0.06;79.01;99136.20;492724;1143;65708;-65
2021/01/08 14:46:51;;;;;;;63.33;43.20;;;;;;;-0.40;79.10;99143.12;492811;1143;65191;-64
2021/01/08 14:56:55;;;;;;;60.90;39.10;;;;;;;-0.68;79.56;99154.13;492585;1143;65136;-61
2021/01/08 15:06:59;;;;;;;63.83;41.93;;;;;;;-0.94;80.58;99152.18;492450;1142;65121;-60
2021/01/08 15:17:04;;;;;;;59.70;41.40;;;;;;;-1.15;80.66;99168.12;492574;1143;65523;-63
2021/01/08 15:27:08;;;;;;;64.00;39.60;;;;;;;-1.41;80.57;99166.12;492592;1143;65165;-60
2021/01/08 15:37:13;;;;;;;68.03;39.13;;;;;;;-1.64;81.24;99167.45;492520;1143;65183;-62
2021/01/08 15:47:17;;;;;;;83.23;53.17;;;;;;;-1.80;81.78;99166.09;492576;1143;65116;-61
2021/01/08 15:57:21;;;;;;;86.23;54.57;;;;;;;-1.81;82.20;99166.97;493458;1143;65095;-64
2021/01/08 16:07:26;;;;;;;83.33;53.87;;;;;;;-1.94;81.76;99179.22;493665;1143;65232;-65
2021/01/08 16:17:30;;;;;;;78.70;52.80;;;;;;;-2.04;82.44;99179.39;493772;1143;65551;-66
2021/01/08 16:27:34;;;;;;;82.90;55.00;;;;;;;-2.16;82.77;99195.06;493597;1143;65108;-67
2021/01/08 16:37:39;;;;;;;94.37;60.03;;;;;;;-2.30;82.78;99196.16;494399;1143;65628;-69
2021/01/08 16:47:43;;;;;;;90.30;57.40;;;;;;;-2.41;83.25;99206.65;494143;1143;65529;-67
2021/01/08 16:57:50;;;;;;;89.13;54.67;;;;;;;-2.56;83.12;99209.45;493982;1143;65210;-67
2021/01/08 17:07:53;;;;;;;;;;;;;;;-2.69;83.19;99211.40;494066;1143;65517;-59
2021/01/08 17:17:57;;;;;;;88.75;57.50;;;;;;;-2.63;83.19;99213.02;494589;1143;65141;-68
2021/01/08 17:28:01;;;;;;;104.67;65.10;;;;;;;-2.51;83.29;99209.39;494296;1143;66307;-66
2021/01/08 17:38:10;;;;;;;110.30;70.30;;;;;;;-2.35;83.62;99218.55;494552;1143;65991;-63
2021/01/08 17:48:15;;;;;;;138.70;89.25;;;;;;;-2.31;84.30;99220.19;494055;1144;65602;-66
2021/01/08 17:58:21;;;;;;;112.97;74.13;;;;;;;-2.26;84.11;99220.11;493994;1144;65257;-62
2021/01/08 18:08:25;;;;;;;109.90;72.87;;;;;;;-2.09;84.28;99222.38;493383;1143;65541;-61
2021/01/08 18:18:30;;;;;;;97.93;65.43;;;;;;;-1.93;83.75;99234.95;493749;1143;65169;-66
2021/01/08 18:28:34;;;;;;;117.67;76.17;;;;;;;-1.69;83.71;99239.63;494361;1142;65140;-62
2021/01/08 18:38:38;;;;;;;146.77;90.60;;;;;;;-1.48;84.03;99239.26;494286;1143;65209;-61
2021/01/08 18:48:42;;;;;;;143.07;87.23;;;;;;;-1.22;83.79;99238.69;494594;1143;65232;-61
2021/01/08 18:58:49;;;;;;;134.72;86.92;;;;;;;-1.14;83.37;99236.81;494033;1143;65177;-63
2021/01/08 19:08:53;;;;;;;136.27;88.40;;;;;;;-0.99;83.75;99250.23;493826;1142;65191;-64
2021/01/08 19:18:57;;;;;;;145.97;91.57;;;;;;;-0.95;82.57;99244.14;493962;1143;65369;-61
2021/01/08 19:29:01;;;;;;;141.85;92.45;;;;;;;-1.01;82.76;99242.55;494368;1143;65084;-63
2021/01/08 19:39:06;;;;;;;125.50;84.27;;;;;;;-1.05;82.58;99242.65;493812;1143;65544;-63
2021/01/08 19:49:10;;;;;;;164.10;101.33;;;;;;;-1.14;82.88;99248.86;494106;1143;65210;-60
2021/01/08 19:59:14;;;;;;;129.57;80.03;;;;;;;-1.32;83.02;99268.13;494380;1143;65121;-61
2021/01/08 20:09:18;;;;;;;144.80;94.35;;;;;;;-1.61;82.63;99269.55;494172;1144;65500;-66
2021/01/08 20:19:22;;;;;;;176.17;109.50;;;;;;;-1.99;83.19;99270.23;494027;1143;65177;-59
2021/01/08 20:29:26;;;;;;;167.90;102.40;;;;;;;-2.30;83.05;99272.49;493598;1144;65224;-64
2021/01/08 20:39:30;;;;;;;191.15;119.90;;;;;;;-2.57;83.17;99280.61;493665;1144;65163;-64
2021/01/08 20:49:34;;;;;;;154.83;101.07;;;;;;;-2.74;83.51;99286.00;493495;1143;65130;-66
2021/01/08 20:59:38;;;;;;;154.23;98.20;;;;;;;-2.89;83.47;99283.63;493527;1143;65322;-63
2021/01/08 21:09:46;;;;;;;164.57;101.50;;;;;;;-3.21;83.34;99287.50;495866;1143;65195;-64
2021/01/08 21:19:51;;;;;;;244.93;141.10;;;;;;;-3.31;84.17;99300.45;494208;1143;65105;-66
2021/01/08 21:29:55;;;;;;;286.73;162.50;;;;;;;-3.49;84.02;99305.78;493747;1143;65204;-67
2021/01/08 21:39:59;;;;;;;245.23;135.50;;;;;;;-3.51;84.22;99313.52;493728;1143;65130;-63
2021/01/08 21:50:04;;;;;;;212.73;126.30;;;;;;;-3.48;84.18;99310.05;493874;1143;65538;-62
2021/01/08 22:00:14;;;;;;;220.93;128.93;;;;;;;-3.36;84.18;99314.20;494229;1143;65183;-69
2021/01/08 22:10:18;;;;;;;183.67;104.47;;;;;;;-3.28;83.80;99322.68;494226;1143;65560;-60
2021/01/08 22:20:22;;;;;;;182.90;106.57;;;;;;;-3.20;84.40;99333.69;493884;1144;65708;-62
2021/01/08 22:30:26;;;;;;;167.27;100.27;;;;;;;-3.18;84.62;99331.95;493862;1143;65544;-60
2021/01/08 22:40:30;;;;;;;154.97;93.17;;;;;;;-3.13;85.04;99331.89;493802;1143;65092;-61
2021/01/08 22:50:34;;;;;;;141.93;88.43;;;;;;;-3.13;84.78;99331.89;493770;1144;65204;-62
2021/01/08 23:00:38;;;;;;;180.70;106.65;;;;;;;-3.13;84.97;99337.89;494229;1143;65201;-60
2021/01/08 23:10:43;;;;;;;188.47;107.10;;;;;;;-2.95;85.14;99348.80;493927;1143;65133;-61
2021/01/08 23:20:47;;;;;;;150.10;93.20;;;;;;;-2.83;84.68;99353.81;493623;1143;65191;-61
2021/01/08 23:30:51;;;;;;;136.73;83.10;;;;;;;-2.71;84.71;99354.52;493830;1144;65197;-61
2021/01/08 23:40:55;;;;;;;147.33;86.67;;;;;;;-2.73;84.92;99362.23;493543;1143;65210;-63
2021/01/08 23:50:59;;;;;;;146.77;91.10;;;;;;;-2.73;84.66;99356.23;493967;1143;65248;-60
